Time;durP1;ratioP1;P1;durP2;ratioP2;P2;SDS_P1;SDS_P2;PMS_P1;PMS_P2;Temp;Humidity;BMP_temperature;BMP_pressure;BME280_temperature;BME280_humidity;BME280_pressure;Samples;Min_cycle;Max_cycle;Signal;HPM_P1;HPM_P2
2022/12/01 00:01:04;;;;;;;52.28;18.42;;;;;;;;;;4914576;28;20044;-81
2022/12/01 00:03:30;;;;;;;51.95;18.27;;;;;;;;;;4915710;28;20436;-80
2022/12/01 00:05:59;;;;;;;45.78;17.55;;;;;;;;;;4915767;29;20043;-81
2022/12/01 00:08:24;;;;;;;56.35;19.77;;;;;;;;;;4915647;29;20043;-81
2022/12/01 00:11:13;;;;;;;51.78;17.63;;;;;;;;;;4913663;29;20424;-81
2022/12/01 00:13:38;;;;;;;44.75;17.10;;;;;;;;;;4878554;29;20540;-81
2022/12/01 00:16:09;;;;;;;49.85;19.13;;;;;;;;;;4863290;29;20048;-81
2022/12/01 00:18:35;;;;;;;47.30;18.60;;;;;;;;;;4878046;29;20041;-80
2022/12/01 00:21:00;;;;;;;52.08;19.23;;;;;;;;;;4867031;29;20044;-80
2022/12/01 00:23:26;;;;;;;49.17;17.95;;;;;;;;;;4895399;29;20072;-81
2022/12/01 00:25:51;;;;;;;47.95;19.05;;;;;;;;;;4875595;29;20041;-81
2022/12/01 00:28:16;;;;;;;54.25;19.30;;;;;;;;;;4891924;29;20041;-81
2022/12/01 00:30:42;;;;;;;50.75;19.20;;;;;;;;;;4875283;29;20036;-79
2022/12/01 00:33:07;;;;;;;53.53;19.23;;;;;;;;;;4876135;29;20033;-81
2022/12/01 00:35:33;;;;;;;50.20;19.17;;;;;;;;;;4868143;29;20045;-80
2022/12/01 00:37:58;;;;;;;48.67;17.33;;;;;;;;;;4842526;29;20045;-80
2022/12/01 00:40:23;;;;;;;49.50;17.98;;;;;;;;;;4860067;29;20464;-80
2022/12/01 00:42:50;;;;;;;47.83;18.40;;;;;;;;;;4871905;29;20092;-81
2022/12/01 00:45:15;;;;;;;52.17;18.10;;;;;;;;;;4840038;29;20037;-80
2022/12/01 00:47:40;;;;;;;51.85;18.38;;;;;;;;;;4862679;29;20517;-81
2022/12/01 00:50:06;;;;;;;50.03;19.13;;;;;;;;;;4864490;28;20035;-81
2022/12/01 00:52:32;;;;;;;50.83;18.88;;;;;;;;;;4902977;29;20066;-81
2022/12/01 00:54:57;;;;;;;51.40;19.27;;;;;;;;;;4922206;29;20051;-79
2022/12/01 00:57:23;;;;;;;52.40;19.08;;;;;;;;;;4902617;29;20094;-80
2022/12/01 00:59:48;;;;;;;49.67;18.30;;;;;;;;;;4917987;29;20086;-81
2022/12/01 01:02:14;;;;;;;56.65;18.15;;;;;;;;;;4916829;29;20119;-81
2022/12/01 01:04:39;;;;;;;53.78;18.90;;;;;;;;;;4917993;28;20050;-81
2022/12/01 01:07:05;;;;;;;52.90;19.08;;;;;;;;;;4932770;29;20049;-80
2022/12/01 01:09:33;;;;;;;47.05;18.50;;;;;;;;;;4932354;29;20081;-80
2022/12/01 01:11:58;;;;;;;47.03;17.48;;;;;;;;;;4917889;29;20043;-80
2022/12/01 01:14:24;;;;;;;47.47;18.13;;;;;;;;;;4918928;29;20542;-80
2022/12/01 01:16:49;;;;;;;45.50;16.80;;;;;;;;;;4916712;29;20534;-80
2022/12/01 01:19:15;;;;;;;44.08;17.17;;;;;;;;;;4917909;28;20067;-80
2022/12/01 01:21:41;;;;;;;42.30;15.68;;;;;;;;;;4920615;29;20127;-80
2022/12/01 01:24:06;;;;;;;47.78;17.70;;;;;;;;;;4916853;29;20563;-81
2022/12/01 01:26:32;;;;;;;42.53;15.63;;;;;;;;;;4917715;29;20065;-80
2022/12/01 01:29:00;;;;;;;44.40;16.15;;;;;;;;;;4918619;28;20067;-80
2022/12/01 01:31:27;;;;;;;43.10;16.85;;;;;;;;;;4933878;29;20468;-81
2022/12/01 01:33:54;;;;;;;42.33;15.68;;;;;;;;;;4916915;29;20102;-80
2022/12/01 01:36:20;;;;;;;43.50;15.82;;;;;;;;;;4917627;29;20582;-80
2022/12/01 01:38:46;;;;;;;42.53;16.55;;;;;;;;;;4916712;29;25272;-80
2022/12/01 01:41:12;;;;;;;42.72;16.20;;;;;;;;;;4921692;29;20098;-81
2022/12/01 01:43:40;;;;;;;45.60;17.85;;;;;;;;;;4920002;29;20117;-81
2022/12/01 01:46:06;;;;;;;47.63;17.58;;;;;;;;;;4934131;29;20038;-82
2022/12/01 01:48:33;;;;;;;47.75;17.48;;;;;;;;;;4935422;29;20070;-78
2022/12/01 01:50:59;;;;;;;45.72;16.65;;;;;;;;;;4918336;29;20406;-79
2022/12/01 01:53:24;;;;;;;51.53;16.83;;;;;;;;;;4919754;29;20039;-80
2022/12/01 01:55:49;;;;;;;51.80;17.33;;;;;;;;;;4917384;29;20035;-80
2022/12/01 01:58:15;;;;;;;44.83;17.02;;;;;;;;;;4930983;29;20047;-81
2022/12/01 02:00:42;;;;;;;44.28;16.27;;;;;;;;;;4931248;28;20047;-81
2022/12/01 02:03:10;;;;;;;43.72;16.88;;;;;;;;;;4932724;28;20102;-80
2022/12/01 02:05:39;;;;;;;43.33;16.10;;;;;;;;;;4933368;29;20027;-80
2022/12/01 02:08:05;;;;;;;49.08;17.05;;;;;;;;;;4933798;29;20045;-81
2022/12/01 02:10:54;;;;;;;48.75;18.20;;;;;;;;;;4917901;28;20043;-81
2022/12/01 02:13:33;;;;;;;43.42;17.00;;;;;;;;;;4936363;28;20047;-81
2022/12/01 02:16:13;;;;;;;43.40;16.20;;;;;;;;;;4932047;28;20567;-81
2022/12/01 02:18:52;;;;;;;42.58;15.45;;;;;;;;;;4903789;29;20039;-81
2022/12/01 02:21:26;;;;;;;42.72;15.50;;;;;;;;;;4932951;29;20091;-81
2022/12/01 02:24:21;;;;;;;42.58;15.43;;;;;;;;;;4930606;28;20444;-81
2022/12/01 02:26:50;;;;;;;44.90;16.75;;;;;;;;;;4930317;29;20468;-79
2022/12/01 02:29:30;;;;;;;43.55;16.88;;;;;;;;;;4933565;28;20051;-81
2022/12/01 02:31:55;;;;;;;40.17;15.32;;;;;;;;;;4944817;28;20500;-80
2022/12/01 02:34:40;;;;;;;48.20;18.33;;;;;;;;;;4934238;29;20036;-81
2022/12/01 02:37:13;;;;;;;51.38;17.10;;;;;;;;;;4917231;28;20622;-80
2022/12/01 02:40:19;;;;;;;51.65;16.70;;;;;;;;;;4918598;28;20044;-81
2022/12/01 02:43:22;;;;;;;46.70;17.45;;;;;;;;;;4905583;29;20593;-80
2022/12/01 02:46:17;;;;;;;48.47;16.40;;;;;;;;;;4883710;29;20038;-80
2022/12/01 02:48:46;;;;;;;48.13;17.63;;;;;;;;;;4923502;28;20043;-80
2022/12/01 02:51:15;;;;;;;47.05;18.30;;;;;;;;;;4917144;28;20502;-82
2022/12/01 02:53:41;;;;;;;50.08;17.63;;;;;;;;;;4910701;29;20602;-80
2022/12/01 02:56:10;;;;;;;46.83;17.05;;;;;;;;;;4922867;28;20180;-80
2022/12/01 02:58:36;;;;;;;47.17;16.40;;;;;;;;;;4905687;28;20551;-80
2022/12/01 03:01:36;;;;;;;52.40;19.13;;;;;;;;;;4921774;28;20043;-80
2022/12/01 03:04:02;;;;;;;50.47;18.10;;;;;;;;;;4923915;28;20050;-80
2022/12/01 03:06:39;;;;;;;49.42;18.65;;;;;;;;;;4927937;29;20039;-81
2022/12/01 03:09:29;;;;;;;53.55;17.98;;;;;;;;;;4936062;28;20036;-80
2022/12/01 03:12:06;;;;;;;54.08;18.02;;;;;;;;;;4920746;28;20112;-80
2022/12/01 03:14:34;;;;;;;;;;;;;;;;;;4906844;28;20091;-80
2022/12/01 03:17:04;;;;;;;49.45;17.08;;;;;;;;;;4946216;28;19929;-80
2022/12/01 03:19:49;;;;;;;50.90;17.40;;;;;;;;;;4915003;29;20047;-81
2022/12/01 03:22:36;;;;;;;45.92;17.65;;;;;;;;;;4913567;28;20036;-80
2022/12/01 03:25:03;;;;;;;46.55;16.45;;;;;;;;;;4913083;28;20039;-81
2022/12/01 03:27:32;;;;;;;42.88;16.67;;;;;;;;;;4914223;29;20780;-80
2022/12/01 03:29:58;;;;;;;53.25;18.13;;;;;;;;;;4928636;29;20032;-81
2022/12/01 03:32:30;;;;;;;46.47;16.40;;;;;;;;;;4913084;29;20590;-81
2022/12/01 03:35:03;;;;;;;45.00;16.30;;;;;;;;;;4913889;29;20035;-81
2022/12/01 03:37:42;;;;;;;46.20;16.92;;;;;;;;;;4925712;28;20404;-81
2022/12/01 03:40:11;;;;;;;41.85;15.18;;;;;;;;;;4905545;28;20043;-81
2022/12/01 03:42:42;;;;;;;44.88;16.85;;;;;;;;;;4913779;28;20044;-81
2022/12/01 03:45:11;;;;;;;45.97;15.75;;;;;;;;;;4903187;29;20031;-81
2022/12/01 03:47:38;;;;;;;46.10;17.33;;;;;;;;;;4910944;29;20082;-81
2022/12/01 03:50:05;;;;;;;49.17;17.65;;;;;;;;;;4916711;28;20035;-80
2022/12/01 03:52:46;;;;;;;47.85;16.98;;;;;;;;;;4916819;29;20115;-81
2022/12/01 03:55:22;;;;;;;44.30;17.10;;;;;;;;;;4912830;28;20053;-81
2022/12/01 03:57:57;;;;;;;50.95;17.27;;;;;;;;;;4914816;29;20445;-81
2022/12/01 04:00:23;;;;;;;48.42;16.00;;;;;;;;;;4916253;29;20134;-81
2022/12/01 04:02:55;;;;;;;54.17;18.67;;;;;;;;;;4915257;29;20035;-81
2022/12/01 04:05:40;;;;;;;49.22;16.90;;;;;;;;;;4915914;28;20063;-81
2022/12/01 04:08:06;;;;;;;49.75;16.63;;;;;;;;;;4871384;29;20136;-80
2022/12/01 04:10:32;;;;;;;54.53;19.45;;;;;;;;;;4842083;29;20124;-80
2022/12/01 04:13:00;;;;;;;46.50;17.98;;;;;;;;;;4859596;29;21164;-81
2022/12/01 04:15:29;;;;;;;49.75;17.48;;;;;;;;;;4843950;29;20127;-81
2022/12/01 04:17:54;;;;;;;56.65;19.63;;;;;;;;;;4857985;29;20041;-81
2022/12/01 04:20:20;;;;;;;41.67;16.38;;;;;;;;;;4856009;29;20060;-81
2022/12/01 04:22:45;;;;;;;47.65;17.70;;;;;;;;;;4876072;29;20048;-80
2022/12/01 04:25:13;;;;;;;49.55;18.63;;;;;;;;;;4876368;29;20044;-82
2022/12/01 04:27:39;;;;;;;51.83;19.38;;;;;;;;;;4840333;29;20045;-80
2022/12/01 04:30:06;;;;;;;48.97;16.77;;;;;;;;;;4863427;29;20722;-80
2022/12/01 04:32:36;;;;;;;43.97;17.35;;;;;;;;;;4862049;29;20050;-81
2022/12/01 04:35:02;;;;;;;47.53;17.77;;;;;;;;;;4878087;29;20051;-82
2022/12/01 04:37:27;;;;;;;51.22;18.52;;;;;;;;;;4861415;29;20552;-81
2022/12/01 04:39:53;;;;;;;53.85;18.67;;;;;;;;;;4850333;29;20052;-81
2022/12/01 04:42:18;;;;;;;51.22;18.63;;;;;;;;;;4873170;29;20741;-81
2022/12/01 04:44:43;;;;;;;52.65;19.08;;;;;;;;;;4882140;29;20047;-81
2022/12/01 04:47:09;;;;;;;49.88;19.25;;;;;;;;;;4916423;29;20039;-81
2022/12/01 04:49:35;;;;;;;47.55;18.13;;;;;;;;;;4918884;29;20051;-80
2022/12/01 04:52:01;;;;;;;48.37;19.33;;;;;;;;;;4919945;28;20122;-81
2022/12/01 04:54:26;;;;;;;55.25;18.77;;;;;;;;;;4932025;29;20377;-80
2022/12/01 04:56:52;;;;;;;57.15;21.15;;;;;;;;;;4919141;29;20130;-81
2022/12/01 04:59:17;;;;;;;48.30;18.40;;;;;;;;;;4916734;28;20606;-80
2022/12/01 05:01:43;;;;;;;48.45;19.48;;;;;;;;;;4932557;28;20043;-81
2022/12/01 05:04:14;;;;;;;47.50;17.92;;;;;;;;;;4922725;28;20031;-82
2022/12/01 05:06:40;;;;;;;54.72;19.40;;;;;;;;;;4935398;28;20102;-80
2022/12/01 05:09:08;;;;;;;54.85;18.88;;;;;;;;;;4933376;29;20450;-80
2022/12/01 05:11:34;;;;;;;49.25;19.75;;;;;;;;;;4917012;29;20044;-80
2022/12/01 05:14:00;;;;;;;49.60;18.98;;;;;;;;;;4937072;28;20036;-81
2022/12/01 05:16:27;;;;;;;54.97;18.50;;;;;;;;;;4918392;29;20123;-81
2022/12/01 05:21:39;;;;;;;60.75;20.92;;;;;;;;;;4934538;29;20403;-81
2022/12/01 05:24:06;;;;;;;61.15;23.20;;;;;;;;;;4916153;29;20032;-80
2022/12/01 05:26:31;;;;;;;55.95;20.90;;;;;;;;;;4917879;28;20208;-80
2022/12/01 05:28:56;;;;;;;50.35;20.25;;;;;;;;;;4917886;29;20047;-80
2022/12/01 05:31:22;;;;;;;49.15;19.08;;;;;;;;;;4916451;29;20040;-80
2022/12/01 05:33:47;;;;;;;57.63;20.70;;;;;;;;;;4916338;28;20522;-81
2022/12/01 05:36:12;;;;;;;49.25;19.02;;;;;;;;;;4930420;28;20115;-82
2022/12/01 05:38:38;;;;;;;49.67;19.02;;;;;;;;;;4917758;29;20437;-81
2022/12/01 05:41:04;;;;;;;59.90;18.88;;;;;;;;;;4931712;28;20039;-79
2022/12/01 05:43:29;;;;;;;50.53;20.13;;;;;;;;;;4917450;29;20051;-80
2022/12/01 05:45:54;;;;;;;51.50;18.67;;;;;;;;;;4935022;29;20040;-79
2022/12/01 05:48:20;;;;;;;52.78;20.50;;;;;;;;;;4930849;28;20511;-80
2022/12/01 05:50:45;;;;;;;55.88;19.55;;;;;;;;;;4912147;28;20122;-80
2022/12/01 05:53:12;;;;;;;48.92;21.08;;;;;;;;;;4930734;28;20122;-79
2022/12/01 05:55:37;;;;;;;48.95;20.45;;;;;;;;;;4915397;28;20036;-81
2022/12/01 05:58:03;;;;;;;54.92;20.50;;;;;;;;;;4916954;29;20072;-78
2022/12/01 06:00:28;;;;;;;53.03;20.42;;;;;;;;;;4916334;28;20507;-79
2022/12/01 06:02:53;;;;;;;55.45;20.70;;;;;;;;;;4919116;29;20119;-79
2022/12/01 06:05:19;;;;;;;54.05;20.15;;;;;;;;;;4933065;28;20093;-78
2022/12/01 06:07:44;;;;;;;59.35;20.40;;;;;;;;;;4934038;28;20027;-78
2022/12/01 06:10:10;;;;;;;58.47;21.73;;;;;;;;;;4918540;28;20069;-78
2022/12/01 06:12:36;;;;;;;55.83;20.52;;;;;;;;;;4917314;29;20050;-77
2022/12/01 06:15:02;;;;;;;59.42;21.15;;;;;;;;;;4934929;28;20047;-78
2022/12/01 06:17:28;;;;;;;60.03;20.92;;;;;;;;;;4918089;29;20039;-79
2022/12/01 06:19:53;;;;;;;55.88;21.02;;;;;;;;;;4919684;29;20123;-79
2022/12/01 06:22:18;;;;;;;54.47;21.00;;;;;;;;;;4932937;28;20432;-78
2022/12/01 06:24:44;;;;;;;59.83;22.25;;;;;;;;;;4916477;29;20071;-79
2022/12/01 06:27:09;;;;;;;59.63;20.92;;;;;;;;;;4914106;29;20036;-79
2022/12/01 06:29:34;;;;;;;57.75;20.75;;;;;;;;;;4931844;28;20050;-79
2022/12/01 06:32:03;;;;;;;56.67;19.63;;;;;;;;;;4921585;28;20035;-79
2022/12/01 06:34:28;;;;;;;56.72;21.25;;;;;;;;;;4916842;29;20031;-79
2022/12/01 06:36:54;;;;;;;55.80;19.35;;;;;;;;;;4917668;29;20062;-78
2022/12/01 06:39:19;;;;;;;49.45;18.92;;;;;;;;;;4932450;29;20042;-80
2022/12/01 06:41:44;;;;;;;56.53;20.20;;;;;;;;;;4914887;29;20496;-78
2022/12/01 06:44:13;;;;;;;48.30;18.85;;;;;;;;;;4916239;29;20503;-80
2022/12/01 06:46:38;;;;;;;53.60;19.27;;;;;;;;;;4914358;28;20518;-79
2022/12/01 06:49:03;;;;;;;44.97;17.67;;;;;;;;;;4916548;29;20035;-79
2022/12/01 06:51:30;;;;;;;50.20;19.98;;;;;;;;;;4914219;29;20063;-78
2022/12/01 06:53:55;;;;;;;51.08;19.73;;;;;;;;;;4915432;29;20500;-79
2022/12/01 06:56:21;;;;;;;48.03;19.25;;;;;;;;;;4913794;29;20044;-78
2022/12/01 06:58:50;;;;;;;52.92;20.75;;;;;;;;;;4918083;28;20047;-79
2022/12/01 07:01:16;;;;;;;54.15;20.98;;;;;;;;;;4934373;28;20051;-78
2022/12/01 07:03:41;;;;;;;55.22;20.45;;;;;;;;;;4915565;29;20082;-79
2022/12/01 07:06:08;;;;;;;53.78;21.63;;;;;;;;;;4930573;28;20031;-79
2022/12/01 07:08:33;;;;;;;55.08;19.75;;;;;;;;;;4917585;28;20039;-80
2022/12/01 07:11:07;;;;;;;51.90;19.60;;;;;;;;;;4916425;29;20412;-79
2022/12/01 07:13:35;;;;;;;56.72;20.30;;;;;;;;;;4916137;29;20113;-78
2022/12/01 07:16:02;;;;;;;51.28;20.70;;;;;;;;;;4916441;29;20039;-80
2022/12/01 07:18:28;;;;;;;55.97;22.25;;;;;;;;;;4910880;29;20049;-79
2022/12/01 07:21:00;;;;;;;53.70;21.08;;;;;;;;;;4919072;29;20036;-80
2022/12/01 07:23:29;;;;;;;52.03;21.67;;;;;;;;;;4915050;29;20042;-80
2022/12/01 07:26:05;;;;;;;50.40;19.85;;;;;;;;;;4925485;29;20504;-80
2022/12/01 07:28:31;;;;;;;55.25;21.25;;;;;;;;;;4916691;28;20037;-80
2022/12/01 07:31:03;;;;;;;55.22;22.70;;;;;;;;;;4917444;29;20043;-80
2022/12/01 07:33:31;;;;;;;54.85;21.63;;;;;;;;;;4928742;29;20474;-80
2022/12/01 07:35:57;;;;;;;53.20;20.85;;;;;;;;;;4915393;29;20043;-81
2022/12/01 07:38:23;;;;;;;52.70;20.13;;;;;;;;;;4913405;29;20070;-79
2022/12/01 07:40:48;;;;;;;51.38;21.33;;;;;;;;;;4930783;29;20078;-80
2022/12/01 07:43:17;;;;;;;59.65;21.77;;;;;;;;;;4914326;29;20071;-81
2022/12/01 07:45:42;;;;;;;54.13;21.00;;;;;;;;;;4928060;29;20388;-81
2022/12/01 07:48:07;;;;;;;56.10;21.63;;;;;;;;;;4900526;29;20043;-81
2022/12/01 07:50:33;;;;;;;63.33;22.55;;;;;;;;;;4914468;29;20038;-81
2022/12/01 07:52:58;;;;;;;60.90;22.25;;;;;;;;;;4927780;29;20747;-82
2022/12/01 07:55:23;;;;;;;60.35;21.73;;;;;;;;;;4932860;29;20067;-81
2022/12/01 07:57:49;;;;;;;61.35;22.88;;;;;;;;;;4917314;29;20031;-81
2022/12/01 08:00:14;;;;;;;58.65;22.45;;;;;;;;;;4917388;28;20044;-81
2022/12/01 08:02:40;;;;;;;60.85;22.75;;;;;;;;;;4920287;29;20566;-81
2022/12/01 08:05:06;;;;;;;63.25;23.67;;;;;;;;;;4919363;28;20558;-82
2022/12/01 08:07:31;;;;;;;67.88;23.65;;;;;;;;;;4919169;29;20455;-82
2022/12/01 08:09:56;;;;;;;70.25;24.50;;;;;;;;;;4905731;29;20371;-82
2022/12/01 08:12:22;;;;;;;61.30;22.92;;;;;;;;;;4917574;29;20538;-82
2022/12/01 08:14:47;;;;;;;61.35;21.30;;;;;;;;;;4925952;29;20032;-81
2022/12/01 08:17:12;;;;;;;66.60;24.25;;;;;;;;;;4917148;29;20043;-81
2022/12/01 08:19:38;;;;;;;67.07;24.23;;;;;;;;;;4916970;28;20066;-81
2022/12/01 08:22:03;;;;;;;69.30;24.90;;;;;;;;;;4930465;28;20036;-81
2022/12/01 08:24:29;;;;;;;67.57;23.75;;;;;;;;;;4933759;29;20046;-82
2022/12/01 08:26:54;;;;;;;67.43;25.75;;;;;;;;;;4919724;29;20509;-80
2022/12/01 08:29:19;;;;;;;64.65;24.73;;;;;;;;;;4918378;29;20031;-82
2022/12/01 08:31:45;;;;;;;69.35;24.17;;;;;;;;;;4915817;29;20066;-81
2022/12/01 08:34:10;;;;;;;70.30;23.77;;;;;;;;;;4920388;29;20035;-81
2022/12/01 08:36:38;;;;;;;75.55;25.48;;;;;;;;;;4929844;29;20044;-82
2022/12/01 08:39:06;;;;;;;72.82;23.73;;;;;;;;;;4905012;29;20035;-80
2022/12/01 08:41:31;;;;;;;82.32;27.15;;;;;;;;;;4904946;29;20038;-81
2022/12/01 08:43:58;;;;;;;73.38;25.13;;;;;;;;;;4923985;29;20035;-80
2022/12/01 08:46:23;;;;;;;79.55;26.42;;;;;;;;;;4918819;29;20058;-81
2022/12/01 08:48:49;;;;;;;79.30;27.55;;;;;;;;;;4917334;29;20039;-81
2022/12/01 08:51:16;;;;;;;74.70;25.20;;;;;;;;;;4916588;29;20669;-82
2022/12/01 08:53:44;;;;;;;81.10;27.65;;;;;;;;;;4931704;29;20507;-81
2022/12/01 08:56:21;;;;;;;77.95;27.27;;;;;;;;;;4919574;29;20558;-80
2022/12/01 08:58:47;;;;;;;;;;;;;;;;;;4916825;29;20479;-81
2022/12/01 09:01:14;;;;;;;71.18;23.63;;;;;;;;;;4931413;29;19929;-81
2022/12/01 09:03:41;;;;;;;78.40;26.27;;;;;;;;;;4919394;29;20043;-81
2022/12/01 09:06:09;;;;;;;74.07;25.58;;;;;;;;;;4916311;28;20035;-81
2022/12/01 09:08:35;;;;;;;85.15;28.98;;;;;;;;;;4923557;28;20525;-79
2022/12/01 09:11:22;;;;;;;78.32;26.50;;;;;;;;;;4936345;29;20040;-82
2022/12/01 09:13:48;;;;;;;;;;;;;;;;;;4915120;29;20039;-82
2022/12/01 09:16:15;;;;;;;68.38;23.52;;;;;;;;;;4917175;29;20456;-82
2022/12/01 09:18:42;;;;;;;82.82;26.75;;;;;;;;;;4916262;29;20039;-83
2022/12/01 09:21:24;;;;;;;85.55;27.73;;;;;;;;;;4900938;29;20436;-82
2022/12/01 09:23:50;;;;;;;85.07;29.02;;;;;;;;;;4933437;29;20043;-81
2022/12/01 09:26:17;;;;;;;80.93;27.08;;;;;;;;;;4916015;29;20610;-83
2022/12/01 09:28:48;;;;;;;83.30;30.02;;;;;;;;;;4906909;29;20036;-83
2022/12/01 09:31:14;;;;;;;84.57;28.67;;;;;;;;;;4914081;29;20488;-83
2022/12/01 09:33:43;;;;;;;78.57;27.75;;;;;;;;;;4907583;29;20039;-82
2022/12/01 09:36:09;;;;;;;80.05;28.35;;;;;;;;;;4915857;29;20197;-82
2022/12/01 09:38:36;;;;;;;80.68;27.17;;;;;;;;;;4913030;29;20687;-81
2022/12/01 09:41:06;;;;;;;72.88;27.30;;;;;;;;;;4908933;29;20042;-82
2022/12/01 09:43:40;;;;;;;80.57;29.25;;;;;;;;;;4917442;29;20039;-82
2022/12/01 09:46:10;;;;;;;76.07;25.38;;;;;;;;;;4933308;29;20567;-82
2022/12/01 09:48:42;;;;;;;72.18;25.25;;;;;;;;;;4916637;29;20126;-81
2022/12/01 09:51:27;;;;;;;82.03;25.85;;;;;;;;;;4904779;28;20058;-80
2022/12/01 09:53:57;;;;;;;74.80;26.77;;;;;;;;;;4917118;29;20890;-81
2022/12/01 09:56:32;;;;;;;70.90;26.38;;;;;;;;;;4950467;28;20118;-80
2022/12/01 09:59:02;;;;;;;70.93;26.58;;;;;;;;;;4916627;29;20846;-81
2022/12/01 10:01:36;;;;;;;69.38;25.27;;;;;;;;;;4917965;29;20175;-81
2022/12/01 10:04:08;;;;;;;76.25;26.73;;;;;;;;;;4933986;29;20511;-81
2022/12/01 10:06:59;;;;;;;74.32;27.17;;;;;;;;;;4916960;28;20099;-80
2022/12/01 10:09:37;;;;;;;72.45;27.15;;;;;;;;;;4933108;29;20554;-80
2022/12/01 10:12:12;;;;;;;70.47;24.88;;;;;;;;;;4942318;28;20116;-79
2022/12/01 10:14:37;;;;;;;80.50;26.90;;;;;;;;;;4930060;28;20139;-81
2022/12/01 10:17:30;;;;;;;70.90;24.35;;;;;;;;;;4917382;29;20125;-82
2022/12/01 10:20:03;;;;;;;83.30;27.48;;;;;;;;;;4932610;29;20418;-81
2022/12/01 10:22:35;;;;;;;74.50;26.67;;;;;;;;;;4914514;29;20175;-81
2022/12/01 10:25:11;;;;;;;68.50;26.15;;;;;;;;;;4930469;29;20047;-81
2022/12/01 10:27:42;;;;;;;78.70;27.35;;;;;;;;;;4921126;29;20035;-81
2022/12/01 10:30:17;;;;;;;70.68;25.40;;;;;;;;;;4932380;29;20773;-81
2022/12/01 10:32:52;;;;;;;71.80;26.48;;;;;;;;;;4933449;28;20515;-82
2022/12/01 10:35:23;;;;;;;70.50;24.95;;;;;;;;;;4916009;29;20127;-82
2022/12/01 10:37:55;;;;;;;79.65;28.08;;;;;;;;;;4935019;28;20518;-81
2022/12/01 10:40:21;;;;;;;78.82;28.85;;;;;;;;;;4901234;29;20055;-82
2022/12/01 10:42:48;;;;;;;65.97;24.65;;;;;;;;;;4920725;28;20103;-81
2022/12/01 10:45:26;;;;;;;75.65;26.70;;;;;;;;;;4916983;29;20115;-81
2022/12/01 10:48:16;;;;;;;80.80;28.35;;;;;;;;;;4916443;29;20030;-81
2022/12/01 10:50:53;;;;;;;81.97;28.05;;;;;;;;;;4934901;28;20451;-81
2022/12/01 10:53:21;;;;;;;79.30;27.33;;;;;;;;;;4933570;28;20039;-81
2022/12/01 10:55:49;;;;;;;75.50;27.58;;;;;;;;;;4931338;28;20126;-81
2022/12/01 10:58:15;;;;;;;74.40;26.42;;;;;;;;;;4933843;28;20167;-81
2022/12/01 11:00:41;;;;;;;72.47;26.23;;;;;;;;;;4918930;29;20039;-81
2022/12/01 11:03:17;;;;;;;77.13;27.58;;;;;;;;;;4916979;29;20389;-82
2022/12/01 11:05:43;;;;;;;70.95;25.60;;;;;;;;;;4917878;28;20518;-80
2022/12/01 11:08:21;;;;;;;77.40;27.60;;;;;;;;;;4932716;28;20032;-80
2022/12/01 11:10:48;;;;;;;70.28;25.85;;;;;;;;;;4915112;29;20875;-80
2022/12/01 11:13:17;;;;;;;75.97;26.42;;;;;;;;;;4904046;28;20094;-81
2022/12/01 11:15:53;;;;;;;63.90;26.27;;;;;;;;;;4915231;29;20043;-81
2022/12/01 11:18:35;;;;;;;74.43;28.15;;;;;;;;;;4916485;29;20039;-80
2022/12/01 11:21:11;;;;;;;71.45;26.67;;;;;;;;;;4902937;29;20127;-79
2022/12/01 11:23:43;;;;;;;65.80;25.65;;;;;;;;;;4932348;29;20488;-81
2022/12/01 11:26:45;;;;;;;65.72;25.20;;;;;;;;;;4916405;29;20040;-79
2022/12/01 11:29:40;;;;;;;71.15;26.52;;;;;;;;;;4878542;29;20517;-81
2022/12/01 11:32:22;;;;;;;68.82;24.85;;;;;;;;;;4852986;29;20396;-82
2022/12/01 11:34:56;;;;;;;65.45;25.27;;;;;;;;;;4890974;29;20111;-80
2022/12/01 11:37:26;;;;;;;70.30;27.08;;;;;;;;;;4880001;29;20119;-80
2022/12/01 11:39:52;;;;;;;64.63;25.80;;;;;;;;;;4892899;29;20035;-80
2022/12/01 11:42:23;;;;;;;64.32;25.42;;;;;;;;;;4893036;29;20055;-81
2022/12/01 11:45:06;;;;;;;63.58;24.35;;;;;;;;;;4876465;29;20036;-80
2022/12/01 11:47:32;;;;;;;60.30;24.13;;;;;;;;;;4861245;29;20378;-80
2022/12/01 11:50:00;;;;;;;64.55;24.95;;;;;;;;;;4879219;29;20087;-81
2022/12/01 11:52:35;;;;;;;71.45;24.90;;;;;;;;;;4890583;29;20048;-80
2022/12/01 11:55:19;;;;;;;65.47;24.05;;;;;;;;;;4893503;29;20480;-80
2022/12/01 11:57:52;;;;;;;58.47;24.17;;;;;;;;;;4876839;29;20064;-81
2022/12/01 12:00:22;;;;;;;58.90;22.92;;;;;;;;;;4891627;29;20559;-81
2022/12/01 12:03:09;;;;;;;60.72;24.70;;;;;;;;;;4857162;29;20589;-80
2022/12/01 12:05:41;;;;;;;60.42;24.52;;;;;;;;;;4901841;28;20040;-81
2022/12/01 12:08:12;;;;;;;60.42;24.13;;;;;;;;;;4925674;28;20403;-82
2022/12/01 12:11:00;;;;;;;61.35;23.10;;;;;;;;;;4927342;29;20065;-81
2022/12/01 12:13:39;;;;;;;63.35;24.95;;;;;;;;;;4913878;29;20407;-80
2022/12/01 12:16:16;;;;;;;55.85;23.17;;;;;;;;;;4927501;29;20543;-82
2022/12/01 12:19:10;;;;;;;63.97;25.02;;;;;;;;;;4900680;28;20601;-81
2022/12/01 12:21:58;;;;;;;57.92;23.33;;;;;;;;;;4928062;29;20045;-81
2022/12/01 12:24:41;;;;;;;62.40;23.17;;;;;;;;;;4930818;29;20043;-82
2022/12/01 12:27:24;;;;;;;60.85;23.30;;;;;;;;;;4929479;29;20035;-81
2022/12/01 12:29:59;;;;;;;53.72;22.73;;;;;;;;;;4932458;29;20111;-82
2022/12/01 12:32:37;;;;;;;51.20;21.98;;;;;;;;;;4928868;28;20047;-81
2022/12/01 12:35:05;;;;;;;56.28;23.90;;;;;;;;;;4943510;28;20043;-81
2022/12/01 12:37:35;;;;;;;58.05;23.60;;;;;;;;;;4932365;28;20170;-81
2022/12/01 12:40:21;;;;;;;51.53;22.08;;;;;;;;;;4927483;29;20051;-82
2022/12/01 12:43:16;;;;;;;51.60;19.95;;;;;;;;;;4929320;28;20047;-80
2022/12/01 12:46:20;;;;;;;49.83;20.98;;;;;;;;;;4920815;29;20135;-81
2022/12/01 12:49:02;;;;;;;47.92;20.02;;;;;;;;;;4909722;29;20035;-81
2022/12/01 12:51:36;;;;;;;44.30;19.75;;;;;;;;;;4932810;28;20028;-81
2022/12/01 12:54:11;;;;;;;50.10;21.33;;;;;;;;;;4932233;29;20566;-81
2022/12/01 12:56:38;;;;;;;44.42;20.73;;;;;;;;;;4931963;28;20115;-82
2022/12/01 12:59:10;;;;;;;44.42;19.63;;;;;;;;;;4934643;29;20512;-81
2022/12/01 13:01:39;;;;;;;45.20;19.63;;;;;;;;;;4917326;29;20051;-81
2022/12/01 13:04:13;;;;;;;46.58;19.95;;;;;;;;;;4919850;29;20059;-83
2022/12/01 13:06:52;;;;;;;46.45;20.42;;;;;;;;;;4933247;28;20042;-81
2022/12/01 13:09:53;;;;;;;47.80;20.95;;;;;;;;;;4935416;28;20039;-81
2022/12/01 13:12:30;;;;;;;43.33;19.42;;;;;;;;;;4905953;29;20561;-81
2022/12/01 13:15:04;;;;;;;46.35;19.88;;;;;;;;;;4933944;29;20035;-81
2022/12/01 13:17:36;;;;;;;44.92;18.80;;;;;;;;;;4916086;29;20472;-81
2022/12/01 13:20:03;;;;;;;46.38;19.50;;;;;;;;;;4934236;29;20066;-80
2022/12/01 13:22:31;;;;;;;47.05;20.85;;;;;;;;;;4934616;28;20040;-81
2022/12/01 13:24:57;;;;;;;47.08;19.70;;;;;;;;;;4934780;29;20039;-80
2022/12/01 13:27:25;;;;;;;40.78;18.77;;;;;;;;;;4918485;29;20046;-80
2022/12/01 13:29:52;;;;;;;43.90;19.77;;;;;;;;;;4920463;29;20117;-80
2022/12/01 13:32:39;;;;;;;41.92;18.92;;;;;;;;;;4903428;29;20035;-80
2022/12/01 13:35:21;;;;;;;42.08;18.38;;;;;;;;;;4919630;29;20047;-80
2022/12/01 13:37:46;;;;;;;43.78;18.70;;;;;;;;;;4931347;28;20499;-80
2022/12/01 13:40:28;;;;;;;41.92;18.38;;;;;;;;;;4915488;29;20039;-80
2022/12/01 13:42:55;;;;;;;44.92;19.00;;;;;;;;;;4945426;28;20047;-80
2022/12/01 13:45:21;;;;;;;42.95;18.38;;;;;;;;;;4916686;29;20039;-81
2022/12/01 13:47:46;;;;;;;43.13;18.63;;;;;;;;;;4933491;29;20040;-80
2022/12/01 13:50:42;;;;;;;40.00;17.20;;;;;;;;;;4932228;28;20051;-83
2022/12/01 13:53:31;;;;;;;41.25;18.42;;;;;;;;;;4931169;28;20066;-82
2022/12/01 13:56:02;;;;;;;40.75;18.40;;;;;;;;;;4932756;29;20039;-83
2022/12/01 13:58:36;;;;;;;44.92;18.25;;;;;;;;;;4926871;28;20037;-82
2022/12/01 14:01:19;;;;;;;39.58;17.27;;;;;;;;;;4920334;29;20060;-82
2022/12/01 14:04:13;;;;;;;42.72;18.60;;;;;;;;;;4932615;28;20051;-83
2022/12/01 14:06:48;;;;;;;40.47;19.05;;;;;;;;;;4894764;29;20044;-84
2022/12/01 14:09:22;;;;;;;41.45;18.33;;;;;;;;;;4885483;29;20075;-82
2022/12/01 14:12:00;;;;;;;36.80;17.27;;;;;;;;;;4896247;29;20534;-82
2022/12/01 14:14:27;;;;;;;43.30;18.55;;;;;;;;;;4881046;29;20558;-81
2022/12/01 14:16:57;;;;;;;43.05;18.38;;;;;;;;;;4880850;29;20055;-82
2022/12/01 14:19:32;;;;;;;41.17;17.88;;;;;;;;;;4877240;29;20036;-82
2022/12/01 14:22:00;;;;;;;42.45;18.40;;;;;;;;;;4881276;29;20443;-82
2022/12/01 14:24:41;;;;;;;41.05;17.85;;;;;;;;;;4896919;29;20050;-82
2022/12/01 14:27:10;;;;;;;46.15;18.20;;;;;;;;;;4877304;29;20063;-82
2022/12/01 14:29:37;;;;;;;44.33;20.33;;;;;;;;;;4899804;29;20103;-81
2022/12/01 14:32:08;;;;;;;43.92;18.88;;;;;;;;;;4894467;29;20047;-82
2022/12/01 14:34:35;;;;;;;42.58;18.77;;;;;;;;;;4915373;29;20082;-83
2022/12/01 14:37:18;;;;;;;41.80;17.80;;;;;;;;;;4883901;29;20583;-81
2022/12/01 14:39:49;;;;;;;42.17;18.40;;;;;;;;;;4899717;29;20094;-82
2022/12/01 14:45:29;;;;;;;44.65;18.95;;;;;;;;;;4931115;29;20099;-84